<?xml version="1.0" encoding="utf-8"?>
<gpx xmlns:xsi="http://www.w3.org/2001/XMLSchema-instance" xmlns:xsd="http://www.w3.org/2001/XMLSchema" version="1.1" creator="Shapelink.com" xmlns="http://www.topografix.com/GPX/1/1" xmlns:gpxtpx="http://www.garmin.com/xmlschemas/TrackPointExtension/v1">
  <metadata>
    <name>Løping 5.08 km, 2012-08-18</name>
    <desc></desc>
    <author><name>Mikael Blom</name></author> 
    <time>2012-08-18T11:32:53Z</time>
  </metadata>
  <trk>
    <name>Løping 5.08 km, 2012-08-18</name>
    <trkseg>
      <trkpt lat="59.9802854" lon="17.7429684">
        <ele>43.3966</ele>
        <time>2012-08-18T11:32:53Z</time>
      </trkpt>
      <trkpt lat="59.9803409" lon="17.7432377">
        <ele>51.5679</ele>
        <time>2012-08-18T11:32:57Z</time>
      </trkpt>
      <trkpt lat="59.9803896" lon="17.7434015">
        <ele>54.9324</ele>
        <time>2012-08-18T11:33:01Z</time>
      </trkpt>
      <trkpt lat="59.9803932" lon="17.7435032">
        <ele>52.5292</ele>
        <time>2012-08-18T11:33:04Z</time>
      </trkpt>
      <trkpt lat="59.9803894" lon="17.7437075">
        <ele>48.2034</ele>
        <time>2012-08-18T11:33:09Z</time>
      </trkpt>
      <trkpt lat="59.9803901" lon="17.7439329">
        <ele>46.7612</ele>
        <time>2012-08-18T11:33:14Z</time>
      </trkpt>
      <trkpt lat="59.9804348" lon="17.7442453">
        <ele>48.684</ele>
        <time>2012-08-18T11:33:20Z</time>
      </trkpt>
      <trkpt lat="59.9804305" lon="17.7444946">
        <ele>47.7225</ele>
        <time>2012-08-18T11:33:25Z</time>
      </trkpt>
      <trkpt lat="59.9804301" lon="17.744542">
        <ele>47.7225</ele>
        <time>2012-08-18T11:33:26Z</time>
      </trkpt>
      <trkpt lat="59.9805366" lon="17.7447627">
        <ele>53.4905</ele>
        <time>2012-08-18T11:33:31Z</time>
      </trkpt>
      <trkpt lat="59.9805837" lon="17.7448131">
        <ele>57.3358</ele>
        <time>2012-08-18T11:33:33Z</time>
      </trkpt>
      <trkpt lat="59.9807261" lon="17.74488">
        <ele>56.3745</ele>
        <time>2012-08-18T11:33:39Z</time>
      </trkpt>
      <trkpt lat="59.9808305" lon="17.7450199">
        <ele>54.9324</ele>
        <time>2012-08-18T11:33:44Z</time>
      </trkpt>
      <trkpt lat="59.9809252" lon="17.7452068">
        <ele>53.0098</ele>
        <time>2012-08-18T11:33:49Z</time>
      </trkpt>
      <trkpt lat="59.9809865" lon="17.7453359">
        <ele>52.5292</ele>
        <time>2012-08-18T11:33:53Z</time>
      </trkpt>
      <trkpt lat="59.9810548" lon="17.745512">
        <ele>53.4905</ele>
        <time>2012-08-18T11:33:58Z</time>
      </trkpt>
      <trkpt lat="59.9811299" lon="17.7457256">
        <ele>49.1646</ele>
        <time>2012-08-18T11:34:04Z</time>
      </trkpt>
      <trkpt lat="59.9812172" lon="17.7459295">
        <ele>47.2418</ele>
        <time>2012-08-18T11:34:10Z</time>
      </trkpt>
      <trkpt lat="59.9812614" lon="17.7461357">
        <ele>44.358</ele>
        <time>2012-08-18T11:34:15Z</time>
      </trkpt>
      <trkpt lat="59.9813239" lon="17.746334">
        <ele>43.3966</ele>
        <time>2012-08-18T11:34:20Z</time>
      </trkpt>
      <trkpt lat="59.9813525" lon="17.7464141">
        <ele>43.8773</ele>
        <time>2012-08-18T11:34:22Z</time>
      </trkpt>
      <trkpt lat="59.9813998" lon="17.7466628">
        <ele>43.8773</ele>
        <time>2012-08-18T11:34:28Z</time>
      </trkpt>
      <trkpt lat="59.9814791" lon="17.7469716">
        <ele>42.916</ele>
        <time>2012-08-18T11:34:35Z</time>
      </trkpt>
      <trkpt lat="59.9814959" lon="17.7470659">
        <ele>43.8773</ele>
        <time>2012-08-18T11:34:37Z</time>
      </trkpt>
      <trkpt lat="59.9815444" lon="17.7472384">
        <ele>41.9547</ele>
        <time>2012-08-18T11:34:41Z</time>
      </trkpt>
      <trkpt lat="59.9816266" lon="17.7474731">
        <ele>41.9547</ele>
        <time>2012-08-18T11:34:47Z</time>
      </trkpt>
      <trkpt lat="59.9816603" lon="17.7475213">
        <ele>43.3966</ele>
        <time>2012-08-18T11:34:49Z</time>
      </trkpt>
      <trkpt lat="59.9817348" lon="17.7475801">
        <ele>48.684</ele>
        <time>2012-08-18T11:34:53Z</time>
      </trkpt>
      <trkpt lat="59.9818457" lon="17.7476156">
        <ele>54.9324</ele>
        <time>2012-08-18T11:34:58Z</time>
      </trkpt>
      <trkpt lat="59.9819281" lon="17.7477082">
        <ele>52.5292</ele>
        <time>2012-08-18T11:35:03Z</time>
      </trkpt>
      <trkpt lat="59.982059" lon="17.7478479">
        <ele>57.8165</ele>
        <time>2012-08-18T11:35:08Z</time>
      </trkpt>
      <trkpt lat="59.9821694" lon="17.7479663">
        <ele>64.0651</ele>
        <time>2012-08-18T11:35:13Z</time>
      </trkpt>
      <trkpt lat="59.9822134" lon="17.7480261">
        <ele>67.4297</ele>
        <time>2012-08-18T11:35:15Z</time>
      </trkpt>
      <trkpt lat="59.9823309" lon="17.7481879">
        <ele>71.7555</ele>
        <time>2012-08-18T11:35:21Z</time>
      </trkpt>
      <trkpt lat="59.9823979" lon="17.7482782">
        <ele>68.3909</ele>
        <time>2012-08-18T11:35:25Z</time>
      </trkpt>
      <trkpt lat="59.9824557" lon="17.7484076">
        <ele>68.3909</ele>
        <time>2012-08-18T11:35:29Z</time>
      </trkpt>
      <trkpt lat="59.9825621" lon="17.7485823">
        <ele>70.3135</ele>
        <time>2012-08-18T11:35:34Z</time>
      </trkpt>
      <trkpt lat="59.9826563" lon="17.7487737">
        <ele>72.2362</ele>
        <time>2012-08-18T11:35:40Z</time>
      </trkpt>
      <trkpt lat="59.9827657" lon="17.7489919">
        <ele>74.1588</ele>
        <time>2012-08-18T11:35:46Z</time>
      </trkpt>
      <trkpt lat="59.9828886" lon="17.749158">
        <ele>78.9655</ele>
        <time>2012-08-18T11:35:51Z</time>
      </trkpt>
      <trkpt lat="59.9829889" lon="17.7493601">
        <ele>78.4847</ele>
        <time>2012-08-18T11:35:57Z</time>
      </trkpt>
      <trkpt lat="59.9830272" lon="17.7494188">
        <ele>72.2362</ele>
        <time>2012-08-18T11:36:01Z</time>
      </trkpt>
      <trkpt lat="59.983104" lon="17.749566">
        <ele>70.7942</ele>
        <time>2012-08-18T11:36:05Z</time>
      </trkpt>
      <trkpt lat="59.9831955" lon="17.7497128">
        <ele>69.3523</ele>
        <time>2012-08-18T11:36:10Z</time>
      </trkpt>
      <trkpt lat="59.9833153" lon="17.7498966">
        <ele>71.7555</ele>
        <time>2012-08-18T11:36:15Z</time>
      </trkpt>
      <trkpt lat="59.9833696" lon="17.7500581">
        <ele>70.7942</ele>
        <time>2012-08-18T11:36:19Z</time>
      </trkpt>
      <trkpt lat="59.9834501" lon="17.7502268">
        <ele>70.3135</ele>
        <time>2012-08-18T11:36:24Z</time>
      </trkpt>
      <trkpt lat="59.9835091" lon="17.7503761">
        <ele>70.3135</ele>
        <time>2012-08-18T11:36:28Z</time>
      </trkpt>
      <trkpt lat="59.9836114" lon="17.7505882">
        <ele>70.7942</ele>
        <time>2012-08-18T11:36:34Z</time>
      </trkpt>
      <trkpt lat="59.9836654" lon="17.7507635">
        <ele>74.6395</ele>
        <time>2012-08-18T11:36:39Z</time>
      </trkpt>
      <trkpt lat="59.9836954" lon="17.7508795">
        <ele>78.004</ele>
        <time>2012-08-18T11:36:42Z</time>
      </trkpt>
      <trkpt lat="59.9837996" lon="17.7510651">
        <ele>68.8716</ele>
        <time>2012-08-18T11:36:48Z</time>
      </trkpt>
      <trkpt lat="59.9838695" lon="17.7512054">
        <ele>63.1036</ele>
        <time>2012-08-18T11:36:53Z</time>
      </trkpt>
      <trkpt lat="59.9840193" lon="17.7513621">
        <ele>57.8165</ele>
        <time>2012-08-18T11:37:00Z</time>
      </trkpt>
      <trkpt lat="59.9840434" lon="17.7513763">
        <ele>57.3358</ele>
        <time>2012-08-18T11:37:01Z</time>
      </trkpt>
      <trkpt lat="59.984188" lon="17.7514479">
        <ele>57.8165</ele>
        <time>2012-08-18T11:37:07Z</time>
      </trkpt>
      <trkpt lat="59.9842902" lon="17.7515259">
        <ele>54.4518</ele>
        <time>2012-08-18T11:37:12Z</time>
      </trkpt>
      <trkpt lat="59.9844043" lon="17.7516366">
        <ele>52.5292</ele>
        <time>2012-08-18T11:37:17Z</time>
      </trkpt>
      <trkpt lat="59.9845198" lon="17.7517923">
        <ele>52.0486</ele>
        <time>2012-08-18T11:37:22Z</time>
      </trkpt>
      <trkpt lat="59.9846331" lon="17.7519409">
        <ele>51.5679</ele>
        <time>2012-08-18T11:37:27Z</time>
      </trkpt>
      <trkpt lat="59.9847389" lon="17.752041">
        <ele>51.0872</ele>
        <time>2012-08-18T11:37:32Z</time>
      </trkpt>
      <trkpt lat="59.9848642" lon="17.7521433">
        <ele>54.4518</ele>
        <time>2012-08-18T11:37:36Z</time>
      </trkpt>
      <trkpt lat="59.9849785" lon="17.7523257">
        <ele>58.2971</ele>
        <time>2012-08-18T11:37:41Z</time>
      </trkpt>
      <trkpt lat="59.9850632" lon="17.7525463">
        <ele>63.1036</ele>
        <time>2012-08-18T11:37:46Z</time>
      </trkpt>
      <trkpt lat="59.9851199" lon="17.7526927">
        <ele>63.5844</ele>
        <time>2012-08-18T11:37:50Z</time>
      </trkpt>
      <trkpt lat="59.9852004" lon="17.752883">
        <ele>62.1423</ele>
        <time>2012-08-18T11:37:55Z</time>
      </trkpt>
      <trkpt lat="59.9852818" lon="17.7531102">
        <ele>66.949</ele>
        <time>2012-08-18T11:38:00Z</time>
      </trkpt>
      <trkpt lat="59.9853153" lon="17.7533297">
        <ele>62.1423</ele>
        <time>2012-08-18T11:38:05Z</time>
      </trkpt>
      <trkpt lat="59.9853822" lon="17.7535531">
        <ele>56.8551</ele>
        <time>2012-08-18T11:38:11Z</time>
      </trkpt>
      <trkpt lat="59.9854168" lon="17.7536918">
        <ele>54.9324</ele>
        <time>2012-08-18T11:38:15Z</time>
      </trkpt>
      <trkpt lat="59.9854918" lon="17.7538983">
        <ele>56.8551</ele>
        <time>2012-08-18T11:38:20Z</time>
      </trkpt>
      <trkpt lat="59.9855911" lon="17.7540703">
        <ele>59.2584</ele>
        <time>2012-08-18T11:38:25Z</time>
      </trkpt>
      <trkpt lat="59.9856845" lon="17.7542469">
        <ele>53.4905</ele>
        <time>2012-08-18T11:38:31Z</time>
      </trkpt>
      <trkpt lat="59.9857441" lon="17.7543397">
        <ele>51.5679</ele>
        <time>2012-08-18T11:38:35Z</time>
      </trkpt>
      <trkpt lat="59.985825" lon="17.7544352">
        <ele>51.0872</ele>
        <time>2012-08-18T11:38:39Z</time>
      </trkpt>
      <trkpt lat="59.9859073" lon="17.754606">
        <ele>52.0486</ele>
        <time>2012-08-18T11:38:44Z</time>
      </trkpt>
      <trkpt lat="59.9859935" lon="17.7548625">
        <ele>53.4905</ele>
        <time>2012-08-18T11:38:50Z</time>
      </trkpt>
      <trkpt lat="59.9860402" lon="17.7551329">
        <ele>55.4131</ele>
        <time>2012-08-18T11:38:56Z</time>
      </trkpt>
      <trkpt lat="59.9860868" lon="17.755395">
        <ele>54.9324</ele>
        <time>2012-08-18T11:39:02Z</time>
      </trkpt>
      <trkpt lat="59.9861119" lon="17.7555355">
        <ele>56.3745</ele>
        <time>2012-08-18T11:39:05Z</time>
      </trkpt>
      <trkpt lat="59.9861714" lon="17.7558114">
        <ele>55.8938</ele>
        <time>2012-08-18T11:39:11Z</time>
      </trkpt>
      <trkpt lat="59.9862146" lon="17.7560283">
        <ele>56.8551</ele>
        <time>2012-08-18T11:39:16Z</time>
      </trkpt>
      <trkpt lat="59.9862648" lon="17.756304">
        <ele>57.8165</ele>
        <time>2012-08-18T11:39:22Z</time>
      </trkpt>
      <trkpt lat="59.9863421" lon="17.7565459">
        <ele>61.6617</ele>
        <time>2012-08-18T11:39:27Z</time>
      </trkpt>
      <trkpt lat="59.9863541" lon="17.7567087">
        <ele>60.2197</ele>
        <time>2012-08-18T11:39:31Z</time>
      </trkpt>
      <trkpt lat="59.9863689" lon="17.7567531">
        <ele>60.2197</ele>
        <time>2012-08-18T11:39:32Z</time>
      </trkpt>
      <trkpt lat="59.9864554" lon="17.757009">
        <ele>60.7003</ele>
        <time>2012-08-18T11:39:38Z</time>
      </trkpt>
      <trkpt lat="59.9865085" lon="17.7572074">
        <ele>61.6617</ele>
        <time>2012-08-18T11:39:42Z</time>
      </trkpt>
      <trkpt lat="59.986595" lon="17.7573925">
        <ele>61.6617</ele>
        <time>2012-08-18T11:39:47Z</time>
      </trkpt>
      <trkpt lat="59.9866798" lon="17.7576378">
        <ele>60.7003</ele>
        <time>2012-08-18T11:39:53Z</time>
      </trkpt>
      <trkpt lat="59.9867464" lon="17.7578702">
        <ele>56.8551</ele>
        <time>2012-08-18T11:39:59Z</time>
      </trkpt>
      <trkpt lat="59.9868211" lon="17.7580634">
        <ele>56.3745</ele>
        <time>2012-08-18T11:40:04Z</time>
      </trkpt>
      <trkpt lat="59.9869263" lon="17.7582057">
        <ele>56.8551</ele>
        <time>2012-08-18T11:40:09Z</time>
      </trkpt>
      <trkpt lat="59.9870233" lon="17.7583476">
        <ele>61.181</ele>
        <time>2012-08-18T11:40:13Z</time>
      </trkpt>
      <trkpt lat="59.9871073" lon="17.7585987">
        <ele>62.6229</ele>
        <time>2012-08-18T11:40:19Z</time>
      </trkpt>
      <trkpt lat="59.9871461" lon="17.7588283">
        <ele>61.6617</ele>
        <time>2012-08-18T11:40:24Z</time>
      </trkpt>
      <trkpt lat="59.987185" lon="17.7590479">
        <ele>56.8551</ele>
        <time>2012-08-18T11:40:29Z</time>
      </trkpt>
      <trkpt lat="59.9872506" lon="17.7592445">
        <ele>54.4518</ele>
        <time>2012-08-18T11:40:34Z</time>
      </trkpt>
      <trkpt lat="59.9873228" lon="17.7595479">
        <ele>53.9712</ele>
        <time>2012-08-18T11:40:41Z</time>
      </trkpt>
      <trkpt lat="59.9874004" lon="17.7598158">
        <ele>55.8938</ele>
        <time>2012-08-18T11:40:47Z</time>
      </trkpt>
      <trkpt lat="59.9873986" lon="17.7600807">
        <ele>51.0872</ele>
        <time>2012-08-18T11:40:53Z</time>
      </trkpt>
      <trkpt lat="59.9873856" lon="17.7601841">
        <ele>50.126</ele>
        <time>2012-08-18T11:40:55Z</time>
      </trkpt>
      <trkpt lat="59.9874257" lon="17.7605524">
        <ele>55.4131</ele>
        <time>2012-08-18T11:41:02Z</time>
      </trkpt>
      <trkpt lat="59.9874418" lon="17.7607264">
        <ele>53.4905</ele>
        <time>2012-08-18T11:41:06Z</time>
      </trkpt>
      <trkpt lat="59.9874768" lon="17.7609077">
        <ele>52.0486</ele>
        <time>2012-08-18T11:41:10Z</time>
      </trkpt>
      <trkpt lat="59.9874937" lon="17.7609915">
        <ele>51.0872</ele>
        <time>2012-08-18T11:41:12Z</time>
      </trkpt>
      <trkpt lat="59.9875535" lon="17.7612029">
        <ele>50.126</ele>
        <time>2012-08-18T11:41:17Z</time>
      </trkpt>
      <trkpt lat="59.9876315" lon="17.7615314">
        <ele>51.5679</ele>
        <time>2012-08-18T11:41:24Z</time>
      </trkpt>
      <trkpt lat="59.987738" lon="17.7617213">
        <ele>50.126</ele>
        <time>2012-08-18T11:41:29Z</time>
      </trkpt>
      <trkpt lat="59.9878363" lon="17.7618292">
        <ele>47.7225</ele>
        <time>2012-08-18T11:41:34Z</time>
      </trkpt>
      <trkpt lat="59.9879815" lon="17.7619121">
        <ele>46.2806</ele>
        <time>2012-08-18T11:41:40Z</time>
      </trkpt>
      <trkpt lat="59.9881276" lon="17.7619463">
        <ele>46.7612</ele>
        <time>2012-08-18T11:41:46Z</time>
      </trkpt>
      <trkpt lat="59.9882555" lon="17.7619214">
        <ele>50.6066</ele>
        <time>2012-08-18T11:41:51Z</time>
      </trkpt>
      <trkpt lat="59.9883793" lon="17.7619426">
        <ele>55.8938</ele>
        <time>2012-08-18T11:41:56Z</time>
      </trkpt>
      <trkpt lat="59.9885094" lon="17.7620603">
        <ele>56.8551</ele>
        <time>2012-08-18T11:42:02Z</time>
      </trkpt>
      <trkpt lat="59.9885936" lon="17.7621686">
        <ele>56.8551</ele>
        <time>2012-08-18T11:42:06Z</time>
      </trkpt>
      <trkpt lat="59.9886601" lon="17.7622419">
        <ele>53.4905</ele>
        <time>2012-08-18T11:42:10Z</time>
      </trkpt>
      <trkpt lat="59.9887478" lon="17.7623893">
        <ele>50.6066</ele>
        <time>2012-08-18T11:42:15Z</time>
      </trkpt>
      <trkpt lat="59.988859" lon="17.7624783">
        <ele>49.1646</ele>
        <time>2012-08-18T11:42:20Z</time>
      </trkpt>
      <trkpt lat="59.9889812" lon="17.7625243">
        <ele>49.6453</ele>
        <time>2012-08-18T11:42:25Z</time>
      </trkpt>
      <trkpt lat="59.9891562" lon="17.7624846">
        <ele>53.4905</ele>
        <time>2012-08-18T11:42:31Z</time>
      </trkpt>
      <trkpt lat="59.9893062" lon="17.7624161">
        <ele>56.3745</ele>
        <time>2012-08-18T11:42:36Z</time>
      </trkpt>
      <trkpt lat="59.9894604" lon="17.7623667">
        <ele>62.6229</ele>
        <time>2012-08-18T11:42:41Z</time>
      </trkpt>
      <trkpt lat="59.9895973" lon="17.7623463">
        <ele>63.5844</ele>
        <time>2012-08-18T11:42:46Z</time>
      </trkpt>
      <trkpt lat="59.9896909" lon="17.7623853">
        <ele>62.6229</ele>
        <time>2012-08-18T11:42:50Z</time>
      </trkpt>
      <trkpt lat="59.9897864" lon="17.7624979">
        <ele>59.7391</ele>
        <time>2012-08-18T11:42:55Z</time>
      </trkpt>
      <trkpt lat="59.9898972" lon="17.7625627">
        <ele>60.7003</ele>
        <time>2012-08-18T11:43:00Z</time>
      </trkpt>
      <trkpt lat="59.9899961" lon="17.7626268">
        <ele>60.2197</ele>
        <time>2012-08-18T11:43:04Z</time>
      </trkpt>
      <trkpt lat="59.9901185" lon="17.7627195">
        <ele>60.7003</ele>
        <time>2012-08-18T11:43:10Z</time>
      </trkpt>
      <trkpt lat="59.9902432" lon="17.7628824">
        <ele>60.2197</ele>
        <time>2012-08-18T11:43:16Z</time>
      </trkpt>
      <trkpt lat="59.9903401" lon="17.7630476">
        <ele>60.2197</ele>
        <time>2012-08-18T11:43:21Z</time>
      </trkpt>
      <trkpt lat="59.9904768" lon="17.7632038">
        <ele>64.5457</ele>
        <time>2012-08-18T11:43:26Z</time>
      </trkpt>
      <trkpt lat="59.9905944" lon="17.7633347">
        <ele>62.1423</ele>
        <time>2012-08-18T11:43:31Z</time>
      </trkpt>
      <trkpt lat="59.9907139" lon="17.763476">
        <ele>61.181</ele>
        <time>2012-08-18T11:43:36Z</time>
      </trkpt>
      <trkpt lat="59.99079" lon="17.7635588">
        <ele>57.8165</ele>
        <time>2012-08-18T11:43:40Z</time>
      </trkpt>
      <trkpt lat="59.9909047" lon="17.7636869">
        <ele>58.7777</ele>
        <time>2012-08-18T11:43:45Z</time>
      </trkpt>
      <trkpt lat="59.991003" lon="17.7637883">
        <ele>56.3745</ele>
        <time>2012-08-18T11:43:50Z</time>
      </trkpt>
      <trkpt lat="59.9910823" lon="17.7638902">
        <ele>55.4131</ele>
        <time>2012-08-18T11:43:54Z</time>
      </trkpt>
      <trkpt lat="59.9912198" lon="17.7640487">
        <ele>59.2584</ele>
        <time>2012-08-18T11:43:59Z</time>
      </trkpt>
      <trkpt lat="59.9912854" lon="17.7642481">
        <ele>58.2971</ele>
        <time>2012-08-18T11:44:04Z</time>
      </trkpt>
      <trkpt lat="59.9913692" lon="17.7645168">
        <ele>60.2197</ele>
        <time>2012-08-18T11:44:10Z</time>
      </trkpt>
      <trkpt lat="59.9914254" lon="17.7647249">
        <ele>59.2584</ele>
        <time>2012-08-18T11:44:15Z</time>
      </trkpt>
      <trkpt lat="59.9915165" lon="17.7649444">
        <ele>62.1423</ele>
        <time>2012-08-18T11:44:20Z</time>
      </trkpt>
      <trkpt lat="59.9915943" lon="17.7650111">
        <ele>60.2197</ele>
        <time>2012-08-18T11:44:24Z</time>
      </trkpt>
      <trkpt lat="59.9916517" lon="17.7648725">
        <ele>56.3745</ele>
        <time>2012-08-18T11:44:29Z</time>
      </trkpt>
      <trkpt lat="59.9917232" lon="17.7646727">
        <ele>54.9324</ele>
        <time>2012-08-18T11:44:34Z</time>
      </trkpt>
      <trkpt lat="59.9918199" lon="17.7644301">
        <ele>58.2971</ele>
        <time>2012-08-18T11:44:39Z</time>
      </trkpt>
      <trkpt lat="59.9918911" lon="17.7642306">
        <ele>60.2197</ele>
        <time>2012-08-18T11:44:43Z</time>
      </trkpt>
      <trkpt lat="59.9919977" lon="17.7640142">
        <ele>67.4297</ele>
        <time>2012-08-18T11:44:48Z</time>
      </trkpt>
      <trkpt lat="59.9920557" lon="17.7638609">
        <ele>68.3909</ele>
        <time>2012-08-18T11:44:53Z</time>
      </trkpt>
      <trkpt lat="59.9921339" lon="17.7637628">
        <ele>68.8716</ele>
        <time>2012-08-18T11:44:57Z</time>
      </trkpt>
      <trkpt lat="59.9922337" lon="17.7636566">
        <ele>70.3135</ele>
        <time>2012-08-18T11:45:02Z</time>
      </trkpt>
      <trkpt lat="59.9923618" lon="17.7635195">
        <ele>70.7942</ele>
        <time>2012-08-18T11:45:07Z</time>
      </trkpt>
      <trkpt lat="59.9924345" lon="17.7633646">
        <ele>67.9103</ele>
        <time>2012-08-18T11:45:12Z</time>
      </trkpt>
      <trkpt lat="59.9924919" lon="17.7632128">
        <ele>64.5457</ele>
        <time>2012-08-18T11:45:16Z</time>
      </trkpt>
      <trkpt lat="59.9925407" lon="17.7630947">
        <ele>62.6229</ele>
        <time>2012-08-18T11:45:20Z</time>
      </trkpt>
      <trkpt lat="59.9925922" lon="17.762877">
        <ele>61.6617</ele>
        <time>2012-08-18T11:45:25Z</time>
      </trkpt>
      <trkpt lat="59.9926524" lon="17.7626911">
        <ele>62.6229</ele>
        <time>2012-08-18T11:45:29Z</time>
      </trkpt>
      <trkpt lat="59.9926975" lon="17.762515">
        <ele>59.2584</ele>
        <time>2012-08-18T11:45:34Z</time>
      </trkpt>
      <trkpt lat="59.9926834" lon="17.7623095">
        <ele>53.9712</ele>
        <time>2012-08-18T11:45:39Z</time>
      </trkpt>
      <trkpt lat="59.9926975" lon="17.7621582">
        <ele>51.0872</ele>
        <time>2012-08-18T11:45:43Z</time>
      </trkpt>
      <trkpt lat="59.9927058" lon="17.761925">
        <ele>49.1646</ele>
        <time>2012-08-18T11:45:48Z</time>
      </trkpt>
      <trkpt lat="59.9927213" lon="17.7617435">
        <ele>46.7612</ele>
        <time>2012-08-18T11:45:52Z</time>
      </trkpt>
      <trkpt lat="59.9927157" lon="17.7614379">
        <ele>45.3192</ele>
        <time>2012-08-18T11:45:59Z</time>
      </trkpt>
      <trkpt lat="59.9927176" lon="17.7611948">
        <ele>43.8773</ele>
        <time>2012-08-18T11:46:04Z</time>
      </trkpt>
      <trkpt lat="59.9927212" lon="17.7609883">
        <ele>42.4354</ele>
        <time>2012-08-18T11:46:08Z</time>
      </trkpt>
      <trkpt lat="59.9927586" lon="17.7606932">
        <ele>42.916</ele>
        <time>2012-08-18T11:46:14Z</time>
      </trkpt>
      <trkpt lat="59.9928017" lon="17.7604617">
        <ele>41.9547</ele>
        <time>2012-08-18T11:46:19Z</time>
      </trkpt>
      <trkpt lat="59.9928111" lon="17.760275">
        <ele>40.5128</ele>
        <time>2012-08-18T11:46:23Z</time>
      </trkpt>
      <trkpt lat="59.9928125" lon="17.7600006">
        <ele>40.9934</ele>
        <time>2012-08-18T11:46:29Z</time>
      </trkpt>
      <trkpt lat="59.99283" lon="17.7598466">
        <ele>42.4354</ele>
        <time>2012-08-18T11:46:32Z</time>
      </trkpt>
      <trkpt lat="59.9928188" lon="17.75957">
        <ele>43.3966</ele>
        <time>2012-08-18T11:46:38Z</time>
      </trkpt>
      <trkpt lat="59.9928105" lon="17.7595354">
        <ele>43.3966</ele>
        <time>2012-08-18T11:46:39Z</time>
      </trkpt>
      <trkpt lat="59.9927866" lon="17.7592708">
        <ele>44.8386</ele>
        <time>2012-08-18T11:46:45Z</time>
      </trkpt>
      <trkpt lat="59.9928026" lon="17.7590414">
        <ele>47.7225</ele>
        <time>2012-08-18T11:46:50Z</time>
      </trkpt>
      <trkpt lat="59.9927843" lon="17.7588419">
        <ele>50.126</ele>
        <time>2012-08-18T11:46:54Z</time>
      </trkpt>
      <trkpt lat="59.9927372" lon="17.7586215">
        <ele>51.5679</ele>
        <time>2012-08-18T11:46:59Z</time>
      </trkpt>
      <trkpt lat="59.9926709" lon="17.7583975">
        <ele>49.1646</ele>
        <time>2012-08-18T11:47:05Z</time>
      </trkpt>
      <trkpt lat="59.9926632" lon="17.7583604">
        <ele>49.1646</ele>
        <time>2012-08-18T11:47:06Z</time>
      </trkpt>
      <trkpt lat="59.9926307" lon="17.7582029">
        <ele>48.2034</ele>
        <time>2012-08-18T11:47:10Z</time>
      </trkpt>
      <trkpt lat="59.9925686" lon="17.7579208">
        <ele>48.2034</ele>
        <time>2012-08-18T11:47:17Z</time>
      </trkpt>
      <trkpt lat="59.9925375" lon="17.757721">
        <ele>46.7612</ele>
        <time>2012-08-18T11:47:22Z</time>
      </trkpt>
      <trkpt lat="59.9924941" lon="17.7575452">
        <ele>47.2418</ele>
        <time>2012-08-18T11:47:26Z</time>
      </trkpt>
      <trkpt lat="59.9924446" lon="17.757367">
        <ele>47.2418</ele>
        <time>2012-08-18T11:47:30Z</time>
      </trkpt>
      <trkpt lat="59.9924115" lon="17.757178">
        <ele>47.2418</ele>
        <time>2012-08-18T11:47:34Z</time>
      </trkpt>
      <trkpt lat="59.9923793" lon="17.7570398">
        <ele>47.2418</ele>
        <time>2012-08-18T11:47:38Z</time>
      </trkpt>
      <trkpt lat="59.9923509" lon="17.7569624">
        <ele>47.7225</ele>
        <time>2012-08-18T11:47:40Z</time>
      </trkpt>
      <trkpt lat="59.9923308" lon="17.7568143">
        <ele>47.7225</ele>
        <time>2012-08-18T11:47:44Z</time>
      </trkpt>
      <trkpt lat="59.992314" lon="17.7567243">
        <ele>48.2034</ele>
        <time>2012-08-18T11:47:46Z</time>
      </trkpt>
      <trkpt lat="59.9923049" lon="17.7566009">
        <ele>49.1646</ele>
        <time>2012-08-18T11:47:49Z</time>
      </trkpt>
      <trkpt lat="59.9922451" lon="17.7563312">
        <ele>50.126</ele>
        <time>2012-08-18T11:47:55Z</time>
      </trkpt>
      <trkpt lat="59.9922096" lon="17.7561662">
        <ele>51.0872</ele>
        <time>2012-08-18T11:47:59Z</time>
      </trkpt>
      <trkpt lat="59.9921703" lon="17.7560451">
        <ele>51.0872</ele>
        <time>2012-08-18T11:48:02Z</time>
      </trkpt>
      <trkpt lat="59.9921122" lon="17.7558509">
        <ele>53.4905</ele>
        <time>2012-08-18T11:48:07Z</time>
      </trkpt>
      <trkpt lat="59.9921014" lon="17.7558125">
        <ele>53.9712</ele>
        <time>2012-08-18T11:48:08Z</time>
      </trkpt>
      <trkpt lat="59.9920752" lon="17.7556233">
        <ele>53.4905</ele>
        <time>2012-08-18T11:48:13Z</time>
      </trkpt>
      <trkpt lat="59.9920449" lon="17.7554183">
        <ele>51.5679</ele>
        <time>2012-08-18T11:48:18Z</time>
      </trkpt>
      <trkpt lat="59.9920351" lon="17.7553254">
        <ele>51.0872</ele>
        <time>2012-08-18T11:48:20Z</time>
      </trkpt>
      <trkpt lat="59.9920028" lon="17.7550907">
        <ele>53.0098</ele>
        <time>2012-08-18T11:48:26Z</time>
      </trkpt>
      <trkpt lat="59.9919589" lon="17.7548957">
        <ele>53.4905</ele>
        <time>2012-08-18T11:48:30Z</time>
      </trkpt>
      <trkpt lat="59.9918954" lon="17.7547326">
        <ele>53.4905</ele>
        <time>2012-08-18T11:48:34Z</time>
      </trkpt>
      <trkpt lat="59.9918838" lon="17.75469">
        <ele>53.4905</ele>
        <time>2012-08-18T11:48:35Z</time>
      </trkpt>
      <trkpt lat="59.9918273" lon="17.7545133">
        <ele>51.5679</ele>
        <time>2012-08-18T11:48:40Z</time>
      </trkpt>
      <trkpt lat="59.9917512" lon="17.7543029">
        <ele>51.5679</ele>
        <time>2012-08-18T11:48:45Z</time>
      </trkpt>
      <trkpt lat="59.9917123" lon="17.7541622">
        <ele>52.0486</ele>
        <time>2012-08-18T11:48:48Z</time>
      </trkpt>
      <trkpt lat="59.9916836" lon="17.7540846">
        <ele>52.5292</ele>
        <time>2012-08-18T11:48:50Z</time>
      </trkpt>
      <trkpt lat="59.9916421" lon="17.7539198">
        <ele>51.0872</ele>
        <time>2012-08-18T11:48:54Z</time>
      </trkpt>
      <trkpt lat="59.9916139" lon="17.7537336">
        <ele>52.0486</ele>
        <time>2012-08-18T11:48:58Z</time>
      </trkpt>
      <trkpt lat="59.9916114" lon="17.7536919">
        <ele>52.0486</ele>
        <time>2012-08-18T11:48:59Z</time>
      </trkpt>
      <trkpt lat="59.9915905" lon="17.7534852">
        <ele>53.4905</ele>
        <time>2012-08-18T11:49:04Z</time>
      </trkpt>
      <trkpt lat="59.9915479" lon="17.7533389">
        <ele>53.9712</ele>
        <time>2012-08-18T11:49:07Z</time>
      </trkpt>
      <trkpt lat="59.9915038" lon="17.7531524">
        <ele>53.4905</ele>
        <time>2012-08-18T11:49:12Z</time>
      </trkpt>
      <trkpt lat="59.9914471" lon="17.7529397">
        <ele>54.9324</ele>
        <time>2012-08-18T11:49:17Z</time>
      </trkpt>
      <trkpt lat="59.9913989" lon="17.7527051">
        <ele>56.8551</ele>
        <time>2012-08-18T11:49:23Z</time>
      </trkpt>
      <trkpt lat="59.9913546" lon="17.7525087">
        <ele>58.2971</ele>
        <time>2012-08-18T11:49:28Z</time>
      </trkpt>
      <trkpt lat="59.991341" lon="17.7524081">
        <ele>59.7391</ele>
        <time>2012-08-18T11:49:30Z</time>
      </trkpt>
      <trkpt lat="59.99133" lon="17.7522269">
        <ele>61.181</ele>
        <time>2012-08-18T11:49:35Z</time>
      </trkpt>
      <trkpt lat="59.9913195" lon="17.7521612">
        <ele>60.7003</ele>
        <time>2012-08-18T11:49:37Z</time>
      </trkpt>
      <trkpt lat="59.9912612" lon="17.7519024">
        <ele>59.7391</ele>
        <time>2012-08-18T11:49:44Z</time>
      </trkpt>
      <trkpt lat="59.9912316" lon="17.7516559">
        <ele>57.3358</ele>
        <time>2012-08-18T11:49:50Z</time>
      </trkpt>
      <trkpt lat="59.9912081" lon="17.7514476">
        <ele>55.8938</ele>
        <time>2012-08-18T11:49:55Z</time>
      </trkpt>
      <trkpt lat="59.9912008" lon="17.751316">
        <ele>55.8938</ele>
        <time>2012-08-18T11:49:58Z</time>
      </trkpt>
      <trkpt lat="59.99119" lon="17.7510852">
        <ele>57.3358</ele>
        <time>2012-08-18T11:50:03Z</time>
      </trkpt>
      <trkpt lat="59.9911983" lon="17.7508458">
        <ele>56.8551</ele>
        <time>2012-08-18T11:50:08Z</time>
      </trkpt>
      <trkpt lat="59.9912082" lon="17.7506521">
        <ele>57.3358</ele>
        <time>2012-08-18T11:50:12Z</time>
      </trkpt>
      <trkpt lat="59.9912207" lon="17.7503732">
        <ele>58.7777</ele>
        <time>2012-08-18T11:50:18Z</time>
      </trkpt>
      <trkpt lat="59.991222" lon="17.7503272">
        <ele>59.2584</ele>
        <time>2012-08-18T11:50:19Z</time>
      </trkpt>
      <trkpt lat="59.9912155" lon="17.7500552">
        <ele>59.2584</ele>
        <time>2012-08-18T11:50:25Z</time>
      </trkpt>
      <trkpt lat="59.9912107" lon="17.749755">
        <ele>56.8551</ele>
        <time>2012-08-18T11:50:31Z</time>
      </trkpt>
      <trkpt lat="59.9912133" lon="17.7497026">
        <ele>56.3745</ele>
        <time>2012-08-18T11:50:32Z</time>
      </trkpt>
      <trkpt lat="59.9912117" lon="17.7494033">
        <ele>57.3358</ele>
        <time>2012-08-18T11:50:38Z</time>
      </trkpt>
      <trkpt lat="59.9912151" lon="17.7493114">
        <ele>57.8165</ele>
        <time>2012-08-18T11:50:40Z</time>
      </trkpt>
      <trkpt lat="59.9912249" lon="17.7489872">
        <ele>58.7777</ele>
        <time>2012-08-18T11:50:46Z</time>
      </trkpt>
      <trkpt lat="59.991234" lon="17.7488924">
        <ele>58.7777</ele>
        <time>2012-08-18T11:50:48Z</time>
      </trkpt>
      <trkpt lat="59.9912564" lon="17.7486567">
        <ele>58.7777</ele>
        <time>2012-08-18T11:50:53Z</time>
      </trkpt>
      <trkpt lat="59.9912668" lon="17.7486225">
        <ele>58.2971</ele>
        <time>2012-08-18T11:50:54Z</time>
      </trkpt>
      <trkpt lat="59.9913194" lon="17.7484118">
        <ele>59.7391</ele>
        <time>2012-08-18T11:50:59Z</time>
      </trkpt>
      <trkpt lat="59.9913502" lon="17.7481714">
        <ele>60.7003</ele>
        <time>2012-08-18T11:51:04Z</time>
      </trkpt>
      <trkpt lat="59.9913454" lon="17.7481222">
        <ele>61.181</ele>
        <time>2012-08-18T11:51:05Z</time>
      </trkpt>
      <trkpt lat="59.9913693" lon="17.7478791">
        <ele>65.0264</ele>
        <time>2012-08-18T11:51:10Z</time>
      </trkpt>
      <trkpt lat="59.9914004" lon="17.747577">
        <ele>67.9103</ele>
        <time>2012-08-18T11:51:16Z</time>
      </trkpt>
      <trkpt lat="59.9914558" lon="17.7474468">
        <ele>66.4683</ele>
        <time>2012-08-18T11:51:20Z</time>
      </trkpt>
      <trkpt lat="59.9915098" lon="17.7472476">
        <ele>65.0264</ele>
        <time>2012-08-18T11:51:25Z</time>
      </trkpt>
      <trkpt lat="59.9915256" lon="17.747173">
        <ele>64.5457</ele>
        <time>2012-08-18T11:51:27Z</time>
      </trkpt>
      <trkpt lat="59.9915351" lon="17.7469275">
        <ele>63.1036</ele>
        <time>2012-08-18T11:51:32Z</time>
      </trkpt>
      <trkpt lat="59.9915595" lon="17.7467492">
        <ele>62.6229</ele>
        <time>2012-08-18T11:51:36Z</time>
      </trkpt>
      <trkpt lat="59.9916085" lon="17.7465439">
        <ele>60.7003</ele>
        <time>2012-08-18T11:51:41Z</time>
      </trkpt>
      <trkpt lat="59.991649" lon="17.7463049">
        <ele>58.2971</ele>
        <time>2012-08-18T11:51:47Z</time>
      </trkpt>
      <trkpt lat="59.991665" lon="17.746048">
        <ele>56.8551</ele>
        <time>2012-08-18T11:51:52Z</time>
      </trkpt>
      <trkpt lat="59.9916984" lon="17.7458181">
        <ele>56.3745</ele>
        <time>2012-08-18T11:51:57Z</time>
      </trkpt>
      <trkpt lat="59.9917289" lon="17.7455523">
        <ele>57.8165</ele>
        <time>2012-08-18T11:52:03Z</time>
      </trkpt>
      <trkpt lat="59.991762" lon="17.745313">
        <ele>60.2197</ele>
        <time>2012-08-18T11:52:08Z</time>
      </trkpt>
      <trkpt lat="59.991795" lon="17.74507">
        <ele>62.6229</ele>
        <time>2012-08-18T11:52:13Z</time>
      </trkpt>
      <trkpt lat="59.9918315" lon="17.744823">
        <ele>64.5457</ele>
        <time>2012-08-18T11:52:18Z</time>
      </trkpt>
      <trkpt lat="59.9918418" lon="17.7447737">
        <ele>65.0264</ele>
        <time>2012-08-18T11:52:19Z</time>
      </trkpt>
      <trkpt lat="59.9918988" lon="17.7445754">
        <ele>66.949</ele>
        <time>2012-08-18T11:52:24Z</time>
      </trkpt>
      <trkpt lat="59.9919769" lon="17.7443768">
        <ele>67.4297</ele>
        <time>2012-08-18T11:52:29Z</time>
      </trkpt>
      <trkpt lat="59.9920555" lon="17.7440571">
        <ele>69.8329</ele>
        <time>2012-08-18T11:52:36Z</time>
      </trkpt>
      <trkpt lat="59.9921252" lon="17.7438024">
        <ele>70.3135</ele>
        <time>2012-08-18T11:52:42Z</time>
      </trkpt>
      <trkpt lat="59.9922054" lon="17.7436248">
        <ele>71.2749</ele>
        <time>2012-08-18T11:52:47Z</time>
      </trkpt>
      <trkpt lat="59.9923116" lon="17.743356">
        <ele>69.3523</ele>
        <time>2012-08-18T11:52:54Z</time>
      </trkpt>
      <trkpt lat="59.9923841" lon="17.7432177">
        <ele>68.3909</ele>
        <time>2012-08-18T11:52:58Z</time>
      </trkpt>
      <trkpt lat="59.9924033" lon="17.7431844">
        <ele>67.9103</ele>
        <time>2012-08-18T11:52:59Z</time>
      </trkpt>
      <trkpt lat="59.9924844" lon="17.7429057">
        <ele>65.9877</ele>
        <time>2012-08-18T11:53:06Z</time>
      </trkpt>
      <trkpt lat="59.9925448" lon="17.7426224">
        <ele>65.9877</ele>
        <time>2012-08-18T11:53:12Z</time>
      </trkpt>
      <trkpt lat="59.992597" lon="17.7423504">
        <ele>65.0264</ele>
        <time>2012-08-18T11:53:18Z</time>
      </trkpt>
      <trkpt lat="59.9926458" lon="17.742128">
        <ele>65.0264</ele>
        <time>2012-08-18T11:53:23Z</time>
      </trkpt>
      <trkpt lat="59.9926943" lon="17.7418967">
        <ele>65.0264</ele>
        <time>2012-08-18T11:53:28Z</time>
      </trkpt>
      <trkpt lat="59.9927498" lon="17.7416242">
        <ele>65.9877</ele>
        <time>2012-08-18T11:53:34Z</time>
      </trkpt>
      <trkpt lat="59.9927748" lon="17.7413435">
        <ele>65.5071</ele>
        <time>2012-08-18T11:53:40Z</time>
      </trkpt>
      <trkpt lat="59.9927556" lon="17.7410777">
        <ele>64.5457</ele>
        <time>2012-08-18T11:53:46Z</time>
      </trkpt>
      <trkpt lat="59.9927263" lon="17.7408907">
        <ele>64.5457</ele>
        <time>2012-08-18T11:53:50Z</time>
      </trkpt>
      <trkpt lat="59.9926865" lon="17.7406524">
        <ele>63.5844</ele>
        <time>2012-08-18T11:53:55Z</time>
      </trkpt>
      <trkpt lat="59.9926597" lon="17.7405144">
        <ele>62.6229</ele>
        <time>2012-08-18T11:53:59Z</time>
      </trkpt>
      <trkpt lat="59.99263" lon="17.7402407">
        <ele>61.181</ele>
        <time>2012-08-18T11:54:05Z</time>
      </trkpt>
      <trkpt lat="59.9925997" lon="17.7399987">
        <ele>60.2197</ele>
        <time>2012-08-18T11:54:10Z</time>
      </trkpt>
      <trkpt lat="59.9925732" lon="17.7398024">
        <ele>58.2971</ele>
        <time>2012-08-18T11:54:14Z</time>
      </trkpt>
      <trkpt lat="59.9925655" lon="17.7395952">
        <ele>56.8551</ele>
        <time>2012-08-18T11:54:18Z</time>
      </trkpt>
      <trkpt lat="59.9925602" lon="17.7394052">
        <ele>55.4131</ele>
        <time>2012-08-18T11:54:22Z</time>
      </trkpt>
      <trkpt lat="59.9925518" lon="17.7392099">
        <ele>55.4131</ele>
        <time>2012-08-18T11:54:26Z</time>
      </trkpt>
      <trkpt lat="59.9925176" lon="17.7390105">
        <ele>54.4518</ele>
        <time>2012-08-18T11:54:30Z</time>
      </trkpt>
      <trkpt lat="59.9925142" lon="17.7389304">
        <ele>53.9712</ele>
        <time>2012-08-18T11:54:32Z</time>
      </trkpt>
      <trkpt lat="59.992456" lon="17.7386731">
        <ele>54.4518</ele>
        <time>2012-08-18T11:54:37Z</time>
      </trkpt>
      <trkpt lat="59.9924663" lon="17.7386213">
        <ele>54.4518</ele>
        <time>2012-08-18T11:54:38Z</time>
      </trkpt>
      <trkpt lat="59.9924669" lon="17.7383644">
        <ele>54.9324</ele>
        <time>2012-08-18T11:54:43Z</time>
      </trkpt>
      <trkpt lat="59.9924437" lon="17.7380619">
        <ele>55.8938</ele>
        <time>2012-08-18T11:54:49Z</time>
      </trkpt>
      <trkpt lat="59.9924046" lon="17.7378816">
        <ele>52.5292</ele>
        <time>2012-08-18T11:54:53Z</time>
      </trkpt>
      <trkpt lat="59.9923852" lon="17.7377322">
        <ele>51.0872</ele>
        <time>2012-08-18T11:54:56Z</time>
      </trkpt>
      <trkpt lat="59.9923606" lon="17.7376392">
        <ele>49.6453</ele>
        <time>2012-08-18T11:54:58Z</time>
      </trkpt>
      <trkpt lat="59.9922716" lon="17.7375662">
        <ele>48.684</ele>
        <time>2012-08-18T11:55:03Z</time>
      </trkpt>
      <trkpt lat="59.992239" lon="17.7375743">
        <ele>49.1646</ele>
        <time>2012-08-18T11:55:04Z</time>
      </trkpt>
      <trkpt lat="59.9920576" lon="17.737689">
        <ele>53.9712</ele>
        <time>2012-08-18T11:55:11Z</time>
      </trkpt>
      <trkpt lat="59.991953" lon="17.7377531">
        <ele>57.3358</ele>
        <time>2012-08-18T11:55:15Z</time>
      </trkpt>
      <trkpt lat="59.9918224" lon="17.7377957">
        <ele>61.6617</ele>
        <time>2012-08-18T11:55:20Z</time>
      </trkpt>
      <trkpt lat="59.9916759" lon="17.7378992">
        <ele>65.9877</ele>
        <time>2012-08-18T11:55:26Z</time>
      </trkpt>
      <trkpt lat="59.9914964" lon="17.7379075">
        <ele>69.3523</ele>
        <time>2012-08-18T11:55:32Z</time>
      </trkpt>
      <trkpt lat="59.9913945" lon="17.7379016">
        <ele>68.3909</ele>
        <time>2012-08-18T11:55:36Z</time>
      </trkpt>
      <trkpt lat="59.9912555" lon="17.737894">
        <ele>65.0264</ele>
        <time>2012-08-18T11:55:41Z</time>
      </trkpt>
      <trkpt lat="59.991155" lon="17.737962">
        <ele>67.9103</ele>
        <time>2012-08-18T11:55:45Z</time>
      </trkpt>
      <trkpt lat="59.9909824" lon="17.7380474">
        <ele>69.3523</ele>
        <time>2012-08-18T11:55:51Z</time>
      </trkpt>
      <trkpt lat="59.9908809" lon="17.7381228">
        <ele>70.3135</ele>
        <time>2012-08-18T11:55:55Z</time>
      </trkpt>
      <trkpt lat="59.9907659" lon="17.7382354">
        <ele>71.2749</ele>
        <time>2012-08-18T11:56:00Z</time>
      </trkpt>
      <trkpt lat="59.9906551" lon="17.7383328">
        <ele>75.6008</ele>
        <time>2012-08-18T11:56:05Z</time>
      </trkpt>
      <trkpt lat="59.990557" lon="17.7384056">
        <ele>77.5234</ele>
        <time>2012-08-18T11:56:09Z</time>
      </trkpt>
      <trkpt lat="59.9904479" lon="17.7384256">
        <ele>75.1202</ele>
        <time>2012-08-18T11:56:13Z</time>
      </trkpt>
      <trkpt lat="59.9903167" lon="17.7383892">
        <ele>67.4297</ele>
        <time>2012-08-18T11:56:19Z</time>
      </trkpt>
      <trkpt lat="59.9901743" lon="17.7384483">
        <ele>64.0651</ele>
        <time>2012-08-18T11:56:25Z</time>
      </trkpt>
      <trkpt lat="59.9900368" lon="17.7384881">
        <ele>61.181</ele>
        <time>2012-08-18T11:56:31Z</time>
      </trkpt>
      <trkpt lat="59.989911" lon="17.7385227">
        <ele>61.6617</ele>
        <time>2012-08-18T11:56:37Z</time>
      </trkpt>
      <trkpt lat="59.9898075" lon="17.7385777">
        <ele>65.0264</ele>
        <time>2012-08-18T11:56:42Z</time>
      </trkpt>
      <trkpt lat="59.9896954" lon="17.7386183">
        <ele>63.5844</ele>
        <time>2012-08-18T11:56:47Z</time>
      </trkpt>
      <trkpt lat="59.9895991" lon="17.7386564">
        <ele>65.5071</ele>
        <time>2012-08-18T11:56:52Z</time>
      </trkpt>
      <trkpt lat="59.989475" lon="17.7387431">
        <ele>67.9103</ele>
        <time>2012-08-18T11:56:58Z</time>
      </trkpt>
      <trkpt lat="59.9893026" lon="17.7387753">
        <ele>64.5457</ele>
        <time>2012-08-18T11:57:05Z</time>
      </trkpt>
      <trkpt lat="59.9891512" lon="17.7388066">
        <ele>60.2197</ele>
        <time>2012-08-18T11:57:11Z</time>
      </trkpt>
      <trkpt lat="59.9890564" lon="17.7388643">
        <ele>59.2584</ele>
        <time>2012-08-18T11:57:15Z</time>
      </trkpt>
      <trkpt lat="59.9889756" lon="17.7389447">
        <ele>59.7391</ele>
        <time>2012-08-18T11:57:19Z</time>
      </trkpt>
      <trkpt lat="59.9888145" lon="17.7390787">
        <ele>65.9877</ele>
        <time>2012-08-18T11:57:26Z</time>
      </trkpt>
      <trkpt lat="59.9886975" lon="17.7391949">
        <ele>70.7942</ele>
        <time>2012-08-18T11:57:31Z</time>
      </trkpt>
      <trkpt lat="59.9885882" lon="17.7392688">
        <ele>69.8329</ele>
        <time>2012-08-18T11:57:36Z</time>
      </trkpt>
      <trkpt lat="59.9884483" lon="17.7392953">
        <ele>65.5071</ele>
        <time>2012-08-18T11:57:42Z</time>
      </trkpt>
      <trkpt lat="59.9883991" lon="17.739307">
        <ele>66.4683</ele>
        <time>2012-08-18T11:57:44Z</time>
      </trkpt>
      <trkpt lat="59.9882421" lon="17.7393665">
        <ele>63.1036</ele>
        <time>2012-08-18T11:57:51Z</time>
      </trkpt>
      <trkpt lat="59.988139" lon="17.7394185">
        <ele>59.7391</ele>
        <time>2012-08-18T11:57:56Z</time>
      </trkpt>
      <trkpt lat="59.9880345" lon="17.7394372">
        <ele>57.8165</ele>
        <time>2012-08-18T11:58:01Z</time>
      </trkpt>
      <trkpt lat="59.9879251" lon="17.7394363">
        <ele>54.4518</ele>
        <time>2012-08-18T11:58:06Z</time>
      </trkpt>
      <trkpt lat="59.9878039" lon="17.739443">
        <ele>52.5292</ele>
        <time>2012-08-18T11:58:11Z</time>
      </trkpt>
      <trkpt lat="59.9876366" lon="17.7394537">
        <ele>52.5292</ele>
        <time>2012-08-18T11:58:17Z</time>
      </trkpt>
      <trkpt lat="59.9875291" lon="17.7394688">
        <ele>52.0486</ele>
        <time>2012-08-18T11:58:21Z</time>
      </trkpt>
      <trkpt lat="59.9873715" lon="17.7395049">
        <ele>52.5292</ele>
        <time>2012-08-18T11:58:26Z</time>
      </trkpt>
      <trkpt lat="59.9872196" lon="17.7394714">
        <ele>52.0486</ele>
        <time>2012-08-18T11:58:31Z</time>
      </trkpt>
      <trkpt lat="59.9870661" lon="17.7394287">
        <ele>53.4905</ele>
        <time>2012-08-18T11:58:36Z</time>
      </trkpt>
      <trkpt lat="59.9869528" lon="17.7393409">
        <ele>54.4518</ele>
        <time>2012-08-18T11:58:41Z</time>
      </trkpt>
      <trkpt lat="59.986845" lon="17.7392515">
        <ele>54.4518</ele>
        <time>2012-08-18T11:58:46Z</time>
      </trkpt>
      <trkpt lat="59.9867337" lon="17.7391619">
        <ele>55.8938</ele>
        <time>2012-08-18T11:58:52Z</time>
      </trkpt>
      <trkpt lat="59.9866335" lon="17.7390596">
        <ele>53.0098</ele>
        <time>2012-08-18T11:58:57Z</time>
      </trkpt>
      <trkpt lat="59.9865195" lon="17.7389587">
        <ele>52.5292</ele>
        <time>2012-08-18T11:59:02Z</time>
      </trkpt>
      <trkpt lat="59.986455" lon="17.7388937">
        <ele>51.5679</ele>
        <time>2012-08-18T11:59:05Z</time>
      </trkpt>
      <trkpt lat="59.9863479" lon="17.7388358">
        <ele>52.0486</ele>
        <time>2012-08-18T11:59:10Z</time>
      </trkpt>
      <trkpt lat="59.9862502" lon="17.7387468">
        <ele>49.1646</ele>
        <time>2012-08-18T11:59:14Z</time>
      </trkpt>
      <trkpt lat="59.9861586" lon="17.7386969">
        <ele>50.126</ele>
        <time>2012-08-18T11:59:18Z</time>
      </trkpt>
      <trkpt lat="59.9860168" lon="17.7386237">
        <ele>51.0872</ele>
        <time>2012-08-18T11:59:23Z</time>
      </trkpt>
      <trkpt lat="59.9858817" lon="17.7385473">
        <ele>50.6066</ele>
        <time>2012-08-18T11:59:28Z</time>
      </trkpt>
      <trkpt lat="59.9857294" lon="17.7385083">
        <ele>51.0872</ele>
        <time>2012-08-18T11:59:33Z</time>
      </trkpt>
      <trkpt lat="59.9855881" lon="17.7384866">
        <ele>53.0098</ele>
        <time>2012-08-18T11:59:38Z</time>
      </trkpt>
      <trkpt lat="59.9854448" lon="17.7384121">
        <ele>53.0098</ele>
        <time>2012-08-18T11:59:43Z</time>
      </trkpt>
      <trkpt lat="59.9853128" lon="17.7383499">
        <ele>51.5679</ele>
        <time>2012-08-18T11:59:48Z</time>
      </trkpt>
      <trkpt lat="59.9851734" lon="17.7383235">
        <ele>53.0098</ele>
        <time>2012-08-18T11:59:53Z</time>
      </trkpt>
      <trkpt lat="59.9850868" lon="17.7382965">
        <ele>52.0486</ele>
        <time>2012-08-18T11:59:57Z</time>
      </trkpt>
      <trkpt lat="59.9849984" lon="17.7382922">
        <ele>53.4905</ele>
        <time>2012-08-18T12:00:01Z</time>
      </trkpt>
      <trkpt lat="59.9848998" lon="17.7382796">
        <ele>52.0486</ele>
        <time>2012-08-18T12:00:05Z</time>
      </trkpt>
      <trkpt lat="59.9847625" lon="17.7382191">
        <ele>50.126</ele>
        <time>2012-08-18T12:00:10Z</time>
      </trkpt>
      <trkpt lat="59.984716" lon="17.7382174">
        <ele>49.6453</ele>
        <time>2012-08-18T12:00:12Z</time>
      </trkpt>
      <trkpt lat="59.9845597" lon="17.7381793">
        <ele>49.6453</ele>
        <time>2012-08-18T12:00:18Z</time>
      </trkpt>
      <trkpt lat="59.984401" lon="17.7381423">
        <ele>52.0486</ele>
        <time>2012-08-18T12:00:23Z</time>
      </trkpt>
      <trkpt lat="59.9842559" lon="17.7380984">
        <ele>50.6066</ele>
        <time>2012-08-18T12:00:28Z</time>
      </trkpt>
      <trkpt lat="59.9840908" lon="17.7380649">
        <ele>47.7225</ele>
        <time>2012-08-18T12:00:35Z</time>
      </trkpt>
      <trkpt lat="59.9839805" lon="17.7380941">
        <ele>46.7612</ele>
        <time>2012-08-18T12:00:40Z</time>
      </trkpt>
      <trkpt lat="59.9838116" lon="17.7381164">
        <ele>44.358</ele>
        <time>2012-08-18T12:00:46Z</time>
      </trkpt>
      <trkpt lat="59.9836584" lon="17.7381536">
        <ele>46.7612</ele>
        <time>2012-08-18T12:00:51Z</time>
      </trkpt>
      <trkpt lat="59.9835474" lon="17.7381653">
        <ele>50.126</ele>
        <time>2012-08-18T12:00:55Z</time>
      </trkpt>
      <trkpt lat="59.9834364" lon="17.7382034">
        <ele>52.5292</ele>
        <time>2012-08-18T12:00:59Z</time>
      </trkpt>
      <trkpt lat="59.9833671" lon="17.7382099">
        <ele>53.0098</ele>
        <time>2012-08-18T12:01:02Z</time>
      </trkpt>
      <trkpt lat="59.9832458" lon="17.7382774">
        <ele>53.4905</ele>
        <time>2012-08-18T12:01:07Z</time>
      </trkpt>
      <trkpt lat="59.983106" lon="17.7383054">
        <ele>53.9712</ele>
        <time>2012-08-18T12:01:12Z</time>
      </trkpt>
      <trkpt lat="59.9829568" lon="17.7383063">
        <ele>53.9712</ele>
        <time>2012-08-18T12:01:17Z</time>
      </trkpt>
      <trkpt lat="59.9828481" lon="17.7382827">
        <ele>52.0486</ele>
        <time>2012-08-18T12:01:22Z</time>
      </trkpt>
      <trkpt lat="59.9827443" lon="17.7382213">
        <ele>49.6453</ele>
        <time>2012-08-18T12:01:26Z</time>
      </trkpt>
      <trkpt lat="59.9826254" lon="17.7381929">
        <ele>50.126</ele>
        <time>2012-08-18T12:01:31Z</time>
      </trkpt>
      <trkpt lat="59.9824999" lon="17.7382131">
        <ele>52.0486</ele>
        <time>2012-08-18T12:01:36Z</time>
      </trkpt>
      <trkpt lat="59.9823524" lon="17.7382376">
        <ele>51.5679</ele>
        <time>2012-08-18T12:01:41Z</time>
      </trkpt>
      <trkpt lat="59.9822187" lon="17.7383212">
        <ele>53.9712</ele>
        <time>2012-08-18T12:01:46Z</time>
      </trkpt>
      <trkpt lat="59.9821206" lon="17.7383938">
        <ele>54.4518</ele>
        <time>2012-08-18T12:01:50Z</time>
      </trkpt>
      <trkpt lat="59.9819877" lon="17.7384414">
        <ele>56.8551</ele>
        <time>2012-08-18T12:01:55Z</time>
      </trkpt>
      <trkpt lat="59.981835" lon="17.7384766">
        <ele>56.3745</ele>
        <time>2012-08-18T12:02:01Z</time>
      </trkpt>
      <trkpt lat="59.9817345" lon="17.738494">
        <ele>54.4518</ele>
        <time>2012-08-18T12:02:05Z</time>
      </trkpt>
      <trkpt lat="59.9816316" lon="17.7385336">
        <ele>55.4131</ele>
        <time>2012-08-18T12:02:09Z</time>
      </trkpt>
      <trkpt lat="59.9815157" lon="17.7385597">
        <ele>54.9324</ele>
        <time>2012-08-18T12:02:14Z</time>
      </trkpt>
      <trkpt lat="59.9813484" lon="17.7385996">
        <ele>51.5679</ele>
        <time>2012-08-18T12:02:20Z</time>
      </trkpt>
      <trkpt lat="59.9812137" lon="17.7386238">
        <ele>50.126</ele>
        <time>2012-08-18T12:02:25Z</time>
      </trkpt>
      <trkpt lat="59.9811914" lon="17.7386306">
        <ele>50.126</ele>
        <time>2012-08-18T12:02:26Z</time>
      </trkpt>
      <trkpt lat="59.9810837" lon="17.7386146">
        <ele>50.6066</ele>
        <time>2012-08-18T12:02:31Z</time>
      </trkpt>
      <trkpt lat="59.9809791" lon="17.7387155">
        <ele>53.0098</ele>
        <time>2012-08-18T12:02:35Z</time>
      </trkpt>
      <trkpt lat="59.9808657" lon="17.7387617">
        <ele>52.5292</ele>
        <time>2012-08-18T12:02:39Z</time>
      </trkpt>
      <trkpt lat="59.9807487" lon="17.7388063">
        <ele>52.0486</ele>
        <time>2012-08-18T12:02:43Z</time>
      </trkpt>
      <trkpt lat="59.9805859" lon="17.7388555">
        <ele>51.0872</ele>
        <time>2012-08-18T12:02:48Z</time>
      </trkpt>
      <trkpt lat="59.9804513" lon="17.7388841">
        <ele>48.684</ele>
        <time>2012-08-18T12:02:53Z</time>
      </trkpt>
      <trkpt lat="59.9803502" lon="17.738898">
        <ele>48.2034</ele>
        <time>2012-08-18T12:02:57Z</time>
      </trkpt>
      <trkpt lat="59.9802254" lon="17.7388725">
        <ele>44.8386</ele>
        <time>2012-08-18T12:03:02Z</time>
      </trkpt>
      <trkpt lat="59.9800586" lon="17.7388384">
        <ele>40.0321</ele>
        <time>2012-08-18T12:03:09Z</time>
      </trkpt>
      <trkpt lat="59.9799128" lon="17.7388389">
        <ele>36.1868</ele>
        <time>2012-08-18T12:03:14Z</time>
      </trkpt>
      <trkpt lat="59.9797883" lon="17.7388628">
        <ele>34.2642</ele>
        <time>2012-08-18T12:03:19Z</time>
      </trkpt>
      <trkpt lat="59.9796721" lon="17.7389047">
        <ele>35.7061</ele>
        <time>2012-08-18T12:03:23Z</time>
      </trkpt>
      <trkpt lat="59.9795782" lon="17.7389553">
        <ele>37.1481</ele>
        <time>2012-08-18T12:03:27Z</time>
      </trkpt>
      <trkpt lat="59.9794644" lon="17.7390076">
        <ele>36.6675</ele>
        <time>2012-08-18T12:03:32Z</time>
      </trkpt>
      <trkpt lat="59.9794163" lon="17.7390475">
        <ele>36.6675</ele>
        <time>2012-08-18T12:03:34Z</time>
      </trkpt>
      <trkpt lat="59.9793728" lon="17.7390579">
        <ele>38.5901</ele>
        <time>2012-08-18T12:03:36Z</time>
      </trkpt>
      <trkpt lat="59.9792322" lon="17.7391549">
        <ele>40.9934</ele>
        <time>2012-08-18T12:03:41Z</time>
      </trkpt>
      <trkpt lat="59.9790899" lon="17.7392461">
        <ele>42.916</ele>
        <time>2012-08-18T12:03:46Z</time>
      </trkpt>
      <trkpt lat="59.978977" lon="17.7392947">
        <ele>45.7999</ele>
        <time>2012-08-18T12:03:50Z</time>
      </trkpt>
      <trkpt lat="59.9789505" lon="17.7393309">
        <ele>46.7612</ele>
        <time>2012-08-18T12:03:51Z</time>
      </trkpt>
    </trkseg>
  </trk>
</gpx>